N511WM KAGS-KAYS
Flight info
| Callsign | N511WM |
|---|---|
| Flight time | 0h 42m |
| Altitude | 16000 |
| Route | MILEN |
| Aircraft | BE60/L-SDFGRY/C |
Departure
| Time | 2026-05-04 01:34 |
|---|---|
| Airport | Augusta Regional At Bush Field (KAGS) |
Arrival
| Time | 2026-05-04 02:16 |
|---|---|
| Airport | Waycross Ware County Airport (KAYS) |
| Time | Latitude | Longitude | Altitude | Speed | Heading |
|---|---|---|---|---|---|
| 2026-05-04 01:17 | 33.37178 | -81.97161 | 149 ft | 0 kts | 166° |
| 2026-05-04 01:25 | 33.37174 | -81.97159 | 149 ft | 1 kts | 145° |
| 2026-05-04 01:25 | 33.37172 | -81.97136 | 149 ft | 6 kts | 81° |
| 2026-05-04 01:25 | 33.37181 | -81.97070 | 149 ft | 10 kts | 81° |
| 2026-05-04 01:26 | 33.37147 | -81.97041 | 149 ft | 10 kts | 171° |
| 2026-05-04 01:26 | 33.37081 | -81.97005 | 149 ft | 10 kts | 97° |
| 2026-05-04 01:26 | 33.37078 | -81.96931 | 149 ft | 9 kts | 150° |
| 2026-05-04 01:26 | 33.37001 | -81.96910 | 149 ft | 14 kts | 167° |
| 2026-05-04 01:27 | 33.36895 | -81.96883 | 149 ft | 17 kts | 168° |
| 2026-05-04 01:27 | 33.36768 | -81.96850 | 148 ft | 20 kts | 167° |
| 2026-05-04 01:27 | 33.36706 | -81.96890 | 148 ft | 11 kts | 261° |
| 2026-05-04 01:27 | 33.36652 | -81.96923 | 148 ft | 11 kts | 166° |
| 2026-05-04 01:28 | 33.36564 | -81.96901 | 148 ft | 15 kts | 168° |
| 2026-05-04 01:28 | 33.36453 | -81.96873 | 149 ft | 18 kts | 167° |
| 2026-05-04 01:28 | 33.36319 | -81.96841 | 149 ft | 21 kts | 168° |
| 2026-05-04 01:28 | 33.36178 | -81.96806 | 149 ft | 17 kts | 168° |
| 2026-05-04 01:29 | 33.36096 | -81.96767 | 149 ft | 10 kts | 118° |
| 2026-05-04 01:29 | 33.36090 | -81.96677 | 149 ft | 9 kts | 89° |
| 2026-05-04 01:29 | 33.36091 | -81.96664 | 148 ft | 0 kts | 90° |
| 2026-05-04 01:32 | 33.36091 | -81.96660 | 148 ft | 2 kts | 90° |
| 2026-05-04 01:32 | 33.36098 | -81.96606 | 148 ft | 11 kts | 52° |
| 2026-05-04 01:33 | 33.36202 | -81.96582 | 148 ft | 26 kts | 352° |
| 2026-05-04 01:33 | 33.36606 | -81.96677 | 149 ft | 89 kts | 348° |
| 2026-05-04 01:33 | 33.37315 | -81.96869 | 275 ft | 118 kts | 346° |
| 2026-05-04 01:33 | 33.38150 | -81.97114 | 633 ft | 125 kts | 345° |
| 2026-05-04 01:34 | 33.38713 | -81.97298 | 898 ft | 128 kts | 342° |
| 2026-05-04 01:34 | 33.39885 | -81.97668 | 1391 ft | 133 kts | 355° |
| 2026-05-04 01:34 | 33.40791 | -81.97499 | 1773 ft | 136 kts | 27° |
| 2026-05-04 01:34 | 33.41394 | -81.96624 | 2050 ft | 144 kts | 78° |
| 2026-05-04 01:35 | 33.41242 | -81.95496 | 2409 ft | 139 kts | 129° |
| 2026-05-04 01:35 | 33.40525 | -81.94792 | 2841 ft | 129 kts | 154° |
| 2026-05-04 01:35 | 33.39747 | -81.94286 | 3233 ft | 130 kts | 154° |
| 2026-05-04 01:35 | 33.38951 | -81.93739 | 3598 ft | 131 kts | 152° |
| 2026-05-04 01:36 | 33.38168 | -81.93183 | 3987 ft | 131 kts | 151° |
| 2026-05-04 01:36 | 33.37382 | -81.92644 | 4374 ft | 130 kts | 155° |
| 2026-05-04 01:36 | 33.36584 | -81.92130 | 4765 ft | 131 kts | 154° |
| 2026-05-04 01:36 | 33.35796 | -81.91605 | 5137 ft | 132 kts | 153° |
| 2026-05-04 01:37 | 33.34989 | -81.91061 | 5480 ft | 135 kts | 153° |
| 2026-05-04 01:37 | 33.34159 | -81.90502 | 5838 ft | 138 kts | 153° |
| 2026-05-04 01:37 | 33.33312 | -81.89930 | 6202 ft | 141 kts | 153° |
| 2026-05-04 01:37 | 33.32456 | -81.89353 | 6567 ft | 142 kts | 152° |
| 2026-05-04 01:38 | 33.31591 | -81.88769 | 6908 ft | 144 kts | 152° |
| 2026-05-04 01:38 | 33.30717 | -81.88178 | 7250 ft | 146 kts | 152° |
| 2026-05-04 01:38 | 33.29829 | -81.87582 | 7600 ft | 147 kts | 152° |
| 2026-05-04 01:38 | 33.28931 | -81.86978 | 7950 ft | 149 kts | 152° |
| 2026-05-04 01:39 | 33.28026 | -81.86368 | 8299 ft | 150 kts | 152° |
| 2026-05-04 01:39 | 33.27111 | -81.85752 | 8652 ft | 152 kts | 152° |
| 2026-05-04 01:39 | 33.26189 | -81.85130 | 9012 ft | 153 kts | 152° |
| 2026-05-04 01:39 | 33.25257 | -81.84504 | 9362 ft | 154 kts | 152° |
| 2026-05-04 01:40 | 33.24314 | -81.83869 | 9723 ft | 156 kts | 152° |
| 2026-05-04 01:40 | 33.23363 | -81.83230 | 10071 ft | 157 kts | 152° |
| 2026-05-04 01:40 | 33.22406 | -81.82586 | 10397 ft | 158 kts | 152° |
| 2026-05-04 01:40 | 33.21444 | -81.81939 | 10726 ft | 159 kts | 153° |
| 2026-05-04 01:41 | 33.20479 | -81.81291 | 11064 ft | 159 kts | 153° |
| 2026-05-04 01:41 | 33.19509 | -81.80639 | 11409 ft | 160 kts | 153° |
| 2026-05-04 01:41 | 33.18550 | -81.79995 | 11745 ft | 160 kts | 154° |
| 2026-05-04 01:41 | 33.17578 | -81.79341 | 12095 ft | 160 kts | 154° |
| 2026-05-04 01:42 | 33.16605 | -81.78688 | 12440 ft | 161 kts | 154° |
| 2026-05-04 01:42 | 33.15627 | -81.78032 | 12765 ft | 163 kts | 154° |
| 2026-05-04 01:42 | 33.14624 | -81.77360 | 13054 ft | 167 kts | 154° |
| 2026-05-04 01:42 | 33.13599 | -81.76673 | 13372 ft | 170 kts | 155° |
| 2026-05-04 01:43 | 33.12563 | -81.75978 | 13711 ft | 172 kts | 155° |
| 2026-05-04 01:43 | 33.11518 | -81.75277 | 14032 ft | 173 kts | 155° |
| 2026-05-04 01:43 | 33.10467 | -81.74572 | 14337 ft | 174 kts | 155° |
| 2026-05-04 01:43 | 33.09410 | -81.73863 | 14645 ft | 174 kts | 155° |
| 2026-05-04 01:44 | 33.08344 | -81.73151 | 14931 ft | 178 kts | 156° |
| 2026-05-04 01:44 | 33.07257 | -81.72423 | 15211 ft | 181 kts | 156° |
| 2026-05-04 01:44 | 33.06154 | -81.71684 | 15500 ft | 183 kts | 156° |
| 2026-05-04 01:44 | 33.05042 | -81.70940 | 15808 ft | 184 kts | 156° |
| 2026-05-04 01:45 | 33.03925 | -81.70194 | 15998 ft | 193 kts | 156° |
| 2026-05-04 01:45 | 33.02692 | -81.69376 | 16015 ft | 211 kts | 156° |
| 2026-05-04 01:45 | 32.99968 | -81.67553 | 16015 ft | 236 kts | 155° |
| 2026-05-04 01:46 | 32.98510 | -81.66577 | 16019 ft | 244 kts | 155° |
| 2026-05-04 01:46 | 32.97005 | -81.65573 | 16026 ft | 251 kts | 155° |
| 2026-05-04 01:46 | 32.95463 | -81.64543 | 16030 ft | 257 kts | 155° |
| 2026-05-04 01:46 | 32.93892 | -81.63493 | 16035 ft | 261 kts | 155° |
| 2026-05-04 01:47 | 32.92290 | -81.62441 | 16033 ft | 263 kts | 159° |
| 2026-05-04 01:47 | 32.90559 | -81.61825 | 16037 ft | 258 kts | 177° |
| 2026-05-04 01:47 | 32.88786 | -81.61819 | 16041 ft | 253 kts | 194° |
| 2026-05-04 01:47 | 32.87115 | -81.62380 | 16045 ft | 248 kts | 207° |
| 2026-05-04 01:48 | 32.85515 | -81.63168 | 16050 ft | 249 kts | 207° |
| 2026-05-04 01:48 | 32.83907 | -81.63940 | 16049 ft | 250 kts | 207° |
| 2026-05-04 01:48 | 32.82290 | -81.64722 | 16054 ft | 251 kts | 207° |
| 2026-05-04 01:48 | 32.80675 | -81.65505 | 16056 ft | 251 kts | 207° |
| 2026-05-04 01:49 | 32.79056 | -81.66288 | 16055 ft | 251 kts | 207° |
| 2026-05-04 01:49 | 32.77434 | -81.67073 | 16057 ft | 252 kts | 207° |
| 2026-05-04 01:49 | 32.75828 | -81.67849 | 16061 ft | 252 kts | 207° |
| 2026-05-04 01:49 | 32.74202 | -81.68635 | 16064 ft | 252 kts | 207° |
| 2026-05-04 01:50 | 32.73104 | -81.69166 | 16063 ft | 253 kts | 207° |
| 2026-05-04 01:50 | 32.70948 | -81.70207 | 16065 ft | 253 kts | 207° |
| 2026-05-04 01:50 | 32.69846 | -81.70739 | 16066 ft | 253 kts | 207° |
| 2026-05-04 01:50 | 32.68236 | -81.71517 | 16066 ft | 253 kts | 207° |
| 2026-05-04 01:51 | 32.66606 | -81.72303 | 16065 ft | 253 kts | 207° |
| 2026-05-04 01:51 | 32.64973 | -81.73090 | 16064 ft | 253 kts | 207° |
| 2026-05-04 01:51 | 32.63340 | -81.73878 | 16064 ft | 253 kts | 207° |
| 2026-05-04 01:51 | 32.61707 | -81.74665 | 16056 ft | 253 kts | 207° |
| 2026-05-04 01:52 | 32.60074 | -81.75451 | 16030 ft | 253 kts | 206° |
| 2026-05-04 01:52 | 32.58441 | -81.76236 | 16031 ft | 253 kts | 206° |
| 2026-05-04 01:52 | 32.56809 | -81.77023 | 16032 ft | 253 kts | 207° |
| 2026-05-04 01:52 | 32.55178 | -81.77808 | 16032 ft | 253 kts | 206° |
| 2026-05-04 01:53 | 32.53547 | -81.78591 | 16033 ft | 253 kts | 206° |
| 2026-05-04 01:53 | 32.51915 | -81.79376 | 16033 ft | 253 kts | 206° |
| 2026-05-04 01:53 | 32.50286 | -81.80159 | 16032 ft | 253 kts | 206° |
| 2026-05-04 01:53 | 32.48658 | -81.80942 | 16033 ft | 253 kts | 206° |
| 2026-05-04 01:54 | 32.47024 | -81.81726 | 16033 ft | 253 kts | 206° |
| 2026-05-04 01:54 | 32.45393 | -81.82508 | 16033 ft | 253 kts | 206° |
| 2026-05-04 01:54 | 32.43764 | -81.83290 | 16033 ft | 253 kts | 206° |
| 2026-05-04 01:54 | 32.42103 | -81.84001 | 16033 ft | 254 kts | 202° |
| 2026-05-04 01:55 | 32.40422 | -81.84647 | 16030 ft | 254 kts | 204° |
| 2026-05-04 01:55 | 32.38778 | -81.85397 | 16030 ft | 253 kts | 207° |
| 2026-05-04 01:55 | 32.37155 | -81.86202 | 16029 ft | 253 kts | 207° |
| 2026-05-04 01:55 | 32.35524 | -81.86984 | 16022 ft | 253 kts | 206° |
| 2026-05-04 01:56 | 32.33893 | -81.87750 | 16033 ft | 252 kts | 207° |
| 2026-05-04 01:56 | 32.32286 | -81.88510 | 16034 ft | 252 kts | 207° |
| 2026-05-04 01:56 | 32.30638 | -81.89293 | 16006 ft | 253 kts | 207° |
| 2026-05-04 01:56 | 32.29021 | -81.90058 | 15980 ft | 253 kts | 207° |
| 2026-05-04 01:57 | 32.27385 | -81.90830 | 15979 ft | 253 kts | 207° |
| 2026-05-04 01:57 | 32.25733 | -81.91612 | 15979 ft | 253 kts | 207° |
| 2026-05-04 01:57 | 32.24102 | -81.92382 | 15980 ft | 252 kts | 207° |
| 2026-05-04 01:57 | 32.22493 | -81.93144 | 15979 ft | 252 kts | 207° |
| 2026-05-04 01:58 | 32.20867 | -81.93913 | 15980 ft | 251 kts | 207° |
| 2026-05-04 01:58 | 32.19244 | -81.94679 | 15979 ft | 251 kts | 207° |
| 2026-05-04 01:58 | 32.17620 | -81.95446 | 15979 ft | 251 kts | 207° |
| 2026-05-04 01:58 | 32.15997 | -81.96212 | 15979 ft | 251 kts | 207° |
| 2026-05-04 01:59 | 32.14375 | -81.96977 | 15977 ft | 251 kts | 207° |
| 2026-05-04 01:59 | 32.12753 | -81.97740 | 15976 ft | 251 kts | 207° |
| 2026-05-04 01:59 | 32.11131 | -81.98506 | 15974 ft | 251 kts | 207° |
| 2026-05-04 01:59 | 32.09510 | -81.99269 | 15974 ft | 251 kts | 207° |
| 2026-05-04 02:00 | 32.07892 | -82.00030 | 15965 ft | 250 kts | 207° |
| 2026-05-04 02:00 | 32.06273 | -82.00793 | 15965 ft | 250 kts | 207° |
| 2026-05-04 02:00 | 32.04657 | -82.01553 | 15910 ft | 252 kts | 207° |
| 2026-05-04 02:00 | 32.02993 | -82.02343 | 15564 ft | 264 kts | 207° |
| 2026-05-04 02:01 | 32.01254 | -82.03163 | 15196 ft | 273 kts | 206° |
| 2026-05-04 02:01 | 31.99487 | -82.03987 | 14831 ft | 272 kts | 206° |
| 2026-05-04 02:01 | 31.97736 | -82.04805 | 14480 ft | 270 kts | 206° |
| 2026-05-04 02:01 | 31.95996 | -82.05625 | 14123 ft | 268 kts | 206° |
| 2026-05-04 02:02 | 31.94269 | -82.06437 | 13748 ft | 266 kts | 206° |
| 2026-05-04 02:02 | 31.92545 | -82.07245 | 13361 ft | 267 kts | 206° |
| 2026-05-04 02:02 | 31.90823 | -82.08052 | 13034 ft | 267 kts | 206° |
| 2026-05-04 02:02 | 31.89118 | -82.08853 | 12717 ft | 268 kts | 206° |
| 2026-05-04 02:03 | 31.87382 | -82.09667 | 12398 ft | 269 kts | 206° |
| 2026-05-04 02:03 | 31.85642 | -82.10483 | 12091 ft | 269 kts | 206° |
| 2026-05-04 02:03 | 31.83904 | -82.11297 | 11784 ft | 269 kts | 206° |
| 2026-05-04 02:03 | 31.82165 | -82.12109 | 11473 ft | 269 kts | 205° |
| 2026-05-04 02:04 | 31.80433 | -82.12919 | 11169 ft | 268 kts | 205° |
| 2026-05-04 02:04 | 31.78705 | -82.13729 | 10878 ft | 267 kts | 205° |
| 2026-05-04 02:04 | 31.76982 | -82.14535 | 10590 ft | 266 kts | 205° |
| 2026-05-04 02:04 | 31.75264 | -82.15338 | 10306 ft | 265 kts | 205° |
| 2026-05-04 02:05 | 31.73550 | -82.16138 | 10024 ft | 265 kts | 205° |
| 2026-05-04 02:05 | 31.71841 | -82.16935 | 9719 ft | 264 kts | 205° |
| 2026-05-04 02:05 | 31.70140 | -82.17732 | 9413 ft | 263 kts | 205° |
| 2026-05-04 02:05 | 31.68442 | -82.18523 | 9108 ft | 262 kts | 204° |
| 2026-05-04 02:06 | 31.66750 | -82.19313 | 8811 ft | 261 kts | 204° |
| 2026-05-04 02:06 | 31.65066 | -82.20097 | 8514 ft | 260 kts | 204° |
| 2026-05-04 02:06 | 31.63391 | -82.20878 | 8236 ft | 258 kts | 204° |
| 2026-05-04 02:06 | 31.61722 | -82.21656 | 7949 ft | 257 kts | 204° |
| 2026-05-04 02:07 | 31.60082 | -82.22421 | 7671 ft | 257 kts | 204° |
| 2026-05-04 02:07 | 31.58427 | -82.23191 | 7393 ft | 255 kts | 203° |
| 2026-05-04 02:07 | 31.56774 | -82.23960 | 7121 ft | 255 kts | 203° |
| 2026-05-04 02:07 | 31.55211 | -82.24891 | 6834 ft | 251 kts | 220° |
| 2026-05-04 02:08 | 31.54094 | -82.26440 | 6558 ft | 248 kts | 237° |
| 2026-05-04 02:08 | 31.53069 | -82.28069 | 6257 ft | 248 kts | 232° |
| 2026-05-04 02:08 | 31.51903 | -82.29566 | 5923 ft | 249 kts | 227° |
| 2026-05-04 02:08 | 31.50690 | -82.31007 | 5591 ft | 247 kts | 227° |
| 2026-05-04 02:09 | 31.49523 | -82.32451 | 5269 ft | 240 kts | 228° |
| 2026-05-04 02:09 | 31.48407 | -82.33862 | 4943 ft | 233 kts | 229° |
| 2026-05-04 02:09 | 31.47315 | -82.35232 | 4608 ft | 228 kts | 228° |
| 2026-05-04 02:09 | 31.46238 | -82.36573 | 4275 ft | 224 kts | 227° |
| 2026-05-04 02:10 | 31.45202 | -82.37861 | 3942 ft | 208 kts | 228° |
| 2026-05-04 02:10 | 31.44241 | -82.39035 | 3585 ft | 192 kts | 224° |
| 2026-05-04 02:10 | 31.43148 | -82.39823 | 3207 ft | 181 kts | 201° |
| 2026-05-04 02:10 | 31.42355 | -82.40058 | 2951 ft | 176 kts | 187° |
| 2026-05-04 02:11 | 31.40806 | -82.40064 | 2578 ft | 157 kts | 179° |
| 2026-05-04 02:11 | 31.39759 | -82.40080 | 2340 ft | 146 kts | 178° |
| 2026-05-04 02:11 | 31.38764 | -82.40048 | 2075 ft | 140 kts | 177° |
| 2026-05-04 02:11 | 31.37838 | -82.40024 | 1775 ft | 128 kts | 177° |
| 2026-05-04 02:12 | 31.37010 | -82.40016 | 1676 ft | 106 kts | 176° |
| 2026-05-04 02:12 | 31.36313 | -82.40005 | 1677 ft | 96 kts | 177° |
| 2026-05-04 02:12 | 31.35644 | -82.39995 | 1682 ft | 97 kts | 176° |
| 2026-05-04 02:12 | 31.34973 | -82.39985 | 1682 ft | 96 kts | 176° |
| 2026-05-04 02:13 | 31.34302 | -82.39974 | 1682 ft | 97 kts | 177° |
| 2026-05-04 02:13 | 31.33632 | -82.39963 | 1683 ft | 96 kts | 176° |
| 2026-05-04 02:13 | 31.32963 | -82.39952 | 1609 ft | 95 kts | 177° |
| 2026-05-04 02:13 | 31.32312 | -82.39942 | 1484 ft | 93 kts | 176° |
| 2026-05-04 02:14 | 31.31684 | -82.39932 | 1363 ft | 90 kts | 177° |
| 2026-05-04 02:14 | 31.31051 | -82.39922 | 1242 ft | 90 kts | 177° |
| 2026-05-04 02:14 | 31.30428 | -82.39913 | 1124 ft | 89 kts | 176° |
| 2026-05-04 02:14 | 31.29806 | -82.39902 | 1005 ft | 89 kts | 177° |
| 2026-05-04 02:15 | 31.29192 | -82.39891 | 886 ft | 91 kts | 176° |
| 2026-05-04 02:15 | 31.28563 | -82.39881 | 766 ft | 90 kts | 176° |
| 2026-05-04 02:15 | 31.27935 | -82.39875 | 645 ft | 90 kts | 176° |
| 2026-05-04 02:15 | 31.27308 | -82.39863 | 522 ft | 90 kts | 178° |
| 2026-05-04 02:16 | 31.26684 | -82.39852 | 402 ft | 89 kts | 179° |
| 2026-05-04 02:16 | 31.26065 | -82.39843 | 282 ft | 89 kts | 179° |
| 2026-05-04 02:16 | 31.25454 | -82.39840 | 153 ft | 84 kts | 179° |
| 2026-05-04 02:16 | 31.24985 | -82.39825 | 139 ft | 33 kts | 171° |
| 2026-05-04 02:17 | 31.24940 | -82.39830 | 139 ft | 4 kts | 288° |
| 2026-05-04 02:17 | 31.24989 | -82.39835 | 139 ft | 9 kts | 347° |
| 2026-05-04 02:17 | 31.25001 | -82.39910 | 141 ft | 12 kts | 268° |
| 2026-05-04 02:17 | 31.25000 | -82.40010 | 141 ft | 11 kts | 269° |
| 2026-05-04 02:18 | 31.24970 | -82.40032 | 141 ft | 6 kts | 220° |
| 2026-05-04 02:18 | 31.24971 | -82.40065 | 141 ft | 0 kts | 266° |
| 2026-05-04 02:18 | 31.24971 | -82.40066 | 141 ft | 0 kts | 266° |